LTFG Airport Information

Runway Information
Airport Frequencies
Airport Navaids
Airport Weather Information & NOTAM
ADDS - METARS form results

(2316 UTC 19 September 2018)
Data provider http://aviationweather.gov/metar/data/
 
METAR text: LTFG 192250Z 11004KT 070V150 CAVOK 20/13 Q1010
Conditions at: LTFG (GAZIPASA , TR) observed 2250 UTC 19 September 2018
Temperature: 20.0°C (68°F)
Dewpoint: 13.0°C (55°F) [RH = 64%]
Pressure (altimeter): 29.82 inches Hg (1010.0 mb)
Winds: from the ESE (110 degrees) at 5 MPH (4 knots; 2.1 m/s)
Visibility: 6 or more miles (10+ km)
Ceiling: ceiling and visibility are OK
Clouds: unknown
Weather: no significant weather observed at this time

Forecast for: LTFG (GAZIPASA , TR)
Text: TAF LTFG 192240Z 2000/2009 VRB02KT CAVOK
Forecast period: 0000 to 0900 UTC 20 September 2018
Forecast type: FROM: standard forecast or significant change
Winds: variable direction winds at 2 MPH (2 knots; 1.0 m/s)
Visibility: 6 or more miles 10+ km)
Ceiling: unknown
Clouds: missing
Weather: NSW  (no significant weather)